Verhnedvinsk, Belarus
Current Conditions -  °F | °C
As of 8:00 AM on Wednesday 22 Oct 2014 (Local Time) from UMII Reporting Station
Overcast Overcast  
Wind Chill: 19°   Ceiling: 2000
Heat Index: 28°   Visibility: 4mi
Dew Point: 21°   Wind: 11mph
Humidity: 74%   Direction: 70°ENE
Pressure: 29.88"   Gusts: 18mph
Location:  55.82°N, 27.95°E
Report Text: UMII 220600Z 07005G08MPS P6000 OVC020 M02/M06 Q1012 NOSIG
Loading
Personal Weather Stations






























Interactive Weather Map
Tropical Storm Tracking
New forecast layout! Learn more

10-Day Weather Forecast

Advertisements
Track Severe Weather on mobile